Aurora, Maine
Current Conditions -  °F | °C
As of 11:10 AM on Monday 24 Nov 2014 (Local Time) from KBGR Reporting Station
Light Rain Light Rain  
Wind Chill: 13°   Ceiling: 1000
Heat Index: 13°   Visibility: 3mi
Dew Point: 12°   Wind: 21mph
Humidity: 93%   Direction: 150°SSE
Pressure: 29.74"   Gusts: 28mph
Location:  44.85°N, 68.33°W
Report Text: KBGR 241610Z 15018G24KT 3SM -RA BR BKN010 OVC014 13/12 A2974 RMK AO2 PK WND 14027/1557 SFC VIS 3 PRESFR P0002 T01280117
Loading
Personal Weather Stations






























Interactive Weather Map New forecast layout! Learn more

10-Day Weather Forecast

Advertisements
Track Severe Weather on mobile